createdAt,value
2017-09-08T00:01:42.521Z,97.40
2017-09-08T00:04:11.720Z,97.60
2017-09-08T00:06:39.280Z,97.60
2017-09-08T00:09:07.583Z,97.70
2017-09-08T00:11:35.140Z,97.70
2017-09-08T00:14:09.928Z,97.90
2017-09-08T00:16:37.485Z,98.00
2017-09-08T00:19:05.050Z,98.10
2017-09-08T00:21:33.327Z,98.30
2017-09-08T00:24:01.683Z,98.30
2017-09-08T00:26:29.214Z,98.20
2017-09-08T00:28:56.739Z,98.10
2017-09-08T00:31:24.329Z,98.20
2017-09-08T00:33:51.835Z,98.20
2017-09-08T00:36:19.346Z,98.30
2017-09-08T00:38:46.875Z,98.30
2017-09-08T00:41:15.976Z,98.00
2017-09-08T00:43:43.523Z,98.00
2017-09-08T00:46:11.065Z,98.20
2017-09-08T00:48:38.623Z,98.10
2017-09-08T00:51:06.132Z,98.20
2017-09-08T00:53:34.608Z,98.20
2017-09-08T00:56:02.122Z,97.90
2017-09-08T00:58:29.683Z,98.10
2017-09-08T01:00:57.191Z,98.10
2017-09-08T01:03:24.700Z,98.20
2017-09-08T01:05:52.205Z,98.20
2017-09-08T01:08:19.762Z,98.00
2017-09-08T01:10:48.040Z,98.20
2017-09-08T01:13:15.568Z,98.10
2017-09-08T01:15:43.148Z,98.10
2017-09-08T01:18:10.788Z,98.10
2017-09-08T01:20:38.296Z,98.50
2017-09-08T01:23:05.812Z,98.20
2017-09-08T01:25:33.349Z,98.30
2017-09-08T01:28:01.816Z,98.50
2017-09-08T01:30:36.695Z,98.70
2017-09-08T01:33:04.216Z,98.80
2017-09-08T01:35:33.299Z,98.60
2017-09-08T01:38:00.816Z,98.60
2017-09-08T01:40:29.131Z,99.10
2017-09-08T01:42:57.237Z,99.10
2017-09-08T01:45:25.223Z,99.10
2017-09-08T01:47:52.748Z,98.40
2017-09-08T01:50:20.302Z,98.20
2017-09-08T01:52:47.844Z,98.20
2017-09-08T01:55:16.291Z,97.80
2017-09-08T01:57:43.844Z,97.60
2017-09-08T02:00:12.976Z,97.50
2017-09-08T02:02:41.120Z,97.50
2017-09-08T02:05:08.643Z,97.60
2017-09-08T02:07:36.191Z,97.60
2017-09-08T02:10:03.711Z,97.30
2017-09-08T02:12:31.223Z,97.80
2017-09-08T02:14:59.692Z,97.80
2017-09-08T02:17:27.198Z,98.00
2017-09-08T02:19:54.827Z,97.60
2017-09-08T02:22:22.370Z,97.70
2017-09-08T02:24:49.880Z,98.10
2017-09-08T02:27:18.259Z,97.60
2017-09-08T02:29:46.551Z,97.80
2017-09-08T02:32:15.828Z,98.00
2017-09-08T02:34:44.267Z,98.00
2017-09-08T02:37:11.777Z,98.10
2017-09-08T02:39:39.289Z,98.50
2017-09-08T02:42:06.809Z,98.60
2017-09-08T02:44:34.383Z,98.70
2017-09-08T02:47:01.900Z,98.80
2017-09-08T02:49:29.472Z,98.90
2017-09-08T02:51:57.759Z,98.40
2017-09-08T02:54:25.267Z,98.50
2017-09-08T02:56:52.774Z,97.80
2017-09-08T02:59:20.283Z,97.80
2017-09-08T03:01:51.403Z,97.50
2017-09-08T03:04:18.944Z,97.30
2017-09-08T03:06:47.947Z,97.60
2017-09-08T03:09:16.176Z,97.60
2017-09-08T03:11:43.740Z,97.40
2017-09-08T03:14:12.212Z,97.10
2017-09-08T03:16:39.720Z,97.20
2017-09-08T03:19:08.033Z,97.40
2017-09-08T03:21:35.598Z,97.10
2017-09-08T03:24:03.127Z,97.20
2017-09-08T03:26:31.903Z,97.40
2017-09-08T03:28:59.453Z,97.40
2017-09-08T03:31:26.966Z,97.40
2017-09-08T03:36:28.715Z,97.30
2017-09-08T03:38:57.392Z,97.20
2017-09-08T03:41:24.901Z,97.20
2017-09-08T03:43:52.436Z,96.80
2017-09-08T03:46:19.983Z,96.50
2017-09-08T03:48:48.309Z,96.60
2017-09-08T03:51:15.895Z,96.60
2017-09-08T03:53:43.416Z,96.30
2017-09-08T03:56:10.962Z,96.40
2017-09-08T03:58:39.960Z,96.80
2017-09-08T04:01:07.474Z,96.80
2017-09-08T04:03:35.799Z,97.20
2017-09-08T04:06:03.525Z,97.20
2017-09-08T04:08:31.086Z,97.50
2017-09-08T04:10:59.427Z,97.70
2017-09-08T04:13:27.037Z,97.60
2017-09-08T04:15:54.572Z,97.60
2017-09-08T04:18:22.078Z,97.70
2017-09-08T04:20:49.588Z,97.80
2017-09-08T04:23:17.159Z,98.00
2017-09-08T04:25:44.724Z,97.90
2017-09-08T04:28:12.274Z,97.90
2017-09-08T04:30:40.337Z,98.10
2017-09-08T04:33:07.860Z,98.30
2017-09-08T04:35:35.369Z,98.60
2017-09-08T04:38:03.883Z,98.60
2017-09-08T04:40:32.238Z,98.70
2017-09-08T04:42:59.809Z,98.80
2017-09-08T04:45:28.088Z,98.50
2017-09-08T04:47:56.136Z,98.50
2017-09-08T04:50:23.691Z,98.70
2017-09-08T04:52:51.662Z,98.90
2017-09-08T04:55:19.339Z,98.90
2017-09-08T04:57:46.947Z,98.90
2017-09-08T05:00:15.042Z,98.80
2017-09-08T05:02:42.598Z,98.50
2017-09-08T05:05:11.479Z,98.70
2017-09-08T05:07:38.999Z,98.80
2017-09-08T05:10:06.972Z,98.70
2017-09-08T05:12:34.503Z,98.60
2017-09-08T05:15:02.014Z,98.00
2017-09-08T05:17:29.823Z,97.90
2017-09-08T05:20:00.243Z,98.10
2017-09-08T05:22:27.891Z,97.90
2017-09-08T05:24:55.476Z,97.90
2017-09-08T05:27:23.015Z,97.70
2017-09-08T05:29:50.612Z,97.50
2017-09-08T05:32:18.928Z,96.80
2017-09-08T05:34:46.439Z,96.10
2017-09-08T05:37:13.962Z,96.20
2017-09-08T05:39:41.473Z,95.60
2017-09-08T05:42:09.802Z,95.70
2017-09-08T05:44:37.328Z,95.50
2017-09-08T05:47:05.636Z,96.20
2017-09-08T05:49:33.182Z,96.20
2017-09-08T05:52:00.700Z,95.00
2017-09-08T05:54:28.246Z,95.10
2017-09-08T05:56:55.750Z,94.90
2017-09-08T05:59:23.309Z,94.90
2017-09-08T06:01:51.760Z,95.70
2017-09-08T06:04:19.304Z,95.80
2017-09-08T06:06:47.582Z,96.50
2017-09-08T06:09:15.944Z,96.40
2017-09-08T06:11:43.692Z,95.60
2017-09-08T06:14:11.196Z,95.40
2017-09-08T06:16:38.755Z,95.00
2017-09-08T06:19:06.280Z,95.30
2017-09-08T06:21:33.799Z,95.40
2017-09-08T06:24:02.067Z,94.30
2017-09-08T06:26:30.200Z,94.40
2017-09-08T06:28:57.717Z,94.30
2017-09-08T06:31:25.988Z,94.90
2017-09-08T06:33:53.546Z,94.90
2017-09-08T06:36:21.824Z,93.90
2017-09-08T06:38:49.573Z,93.90
2017-09-08T06:41:17.645Z,93.60
2017-09-08T06:43:45.203Z,93.60
2017-09-08T06:46:12.757Z,93.80
2017-09-08T06:48:40.320Z,93.40
2017-09-08T06:51:08.808Z,93.70
2017-09-08T06:53:36.377Z,93.70
2017-09-08T06:56:03.970Z,93.00
2017-09-08T06:58:31.513Z,92.90
2017-09-08T07:00:59.117Z,93.10
2017-09-08T07:03:26.627Z,91.90
2017-09-08T07:05:54.132Z,91.70
2017-09-08T07:08:22.481Z,90.30
2017-09-08T07:10:50.834Z,89.90
2017-09-08T07:13:18.409Z,89.10
2017-09-08T07:15:47.623Z,90.70
2017-09-08T07:18:15.140Z,90.70
2017-09-08T07:20:42.663Z,90.80
2017-09-08T07:23:10.209Z,90.00
2017-09-08T07:25:37.720Z,88.50
2017-09-08T07:28:06.218Z,88.10
2017-09-08T07:30:34.511Z,83.70
2017-09-08T07:33:02.144Z,83.00
2017-09-08T07:35:30.655Z,82.60
2017-09-08T07:37:58.324Z,82.60
2017-09-08T07:40:25.890Z,81.40
2017-09-08T07:42:53.418Z,80.10
2017-09-08T07:45:21.799Z,78.80
2017-09-08T07:47:51.129Z,77.90
2017-09-08T07:50:19.490Z,77.80
2017-09-08T07:52:47.865Z,75.40
2017-09-08T07:55:15.494Z,75.40
2017-09-08T07:57:43.098Z,77.30
2017-09-08T08:00:11.261Z,75.60
2017-09-08T08:02:40.154Z,75.70
2017-09-08T08:05:08.438Z,78.40
2017-09-08T08:07:36.571Z,78.30
2017-09-08T08:10:04.124Z,79.10
2017-09-08T08:12:32.192Z,78.40
2017-09-08T08:15:00.148Z,77.20
2017-09-08T08:17:27.651Z,68.60
2017-09-08T08:19:55.161Z,64.10
2017-09-08T08:22:24.007Z,66.20
2017-09-08T08:24:51.532Z,66.20
2017-09-08T08:27:19.205Z,65.50
2017-09-08T08:29:46.747Z,65.50
2017-09-08T08:32:14.261Z,69.00
2017-09-08T08:34:42.500Z,68.40
2017-09-08T08:37:10.004Z,67.40
2017-09-08T08:39:37.523Z,70.40
2017-09-08T08:42:05.032Z,69.70
2017-09-08T08:44:33.841Z,72.20
2017-09-08T08:47:01.469Z,72.50
2017-09-08T08:49:29.039Z,72.90
2017-09-08T08:51:57.344Z,70.90
2017-09-08T08:54:25.939Z,70.80
2017-09-08T08:56:53.612Z,69.90
2017-09-08T08:59:21.174Z,65.50
2017-09-08T09:01:48.681Z,65.80
2017-09-08T09:04:16.471Z,61.40
2017-09-08T09:06:44.015Z,59.60
2017-09-08T09:09:11.564Z,56.10
2017-09-08T09:11:40.556Z,56.00
2017-09-08T09:14:08.961Z,57.30
2017-09-08T09:16:37.422Z,57.10
2017-09-08T09:19:05.862Z,60.80
2017-09-08T09:21:33.404Z,60.80
2017-09-08T09:24:00.911Z,65.70
2017-09-08T09:26:29.144Z,68.30
2017-09-08T09:28:56.663Z,71.10
2017-09-08T09:31:24.974Z,67.30
2017-09-08T09:33:52.589Z,66.60
2017-09-08T09:36:20.113Z,65.80
2017-09-08T09:38:47.623Z,66.50
2017-09-08T09:41:15.123Z,68.60
2017-09-08T09:43:43.044Z,66.40
2017-09-08T09:46:10.552Z,64.90
2017-09-08T09:48:38.079Z,64.30
2017-09-08T09:51:05.599Z,64.90
2017-09-08T09:53:37.215Z,65.00
2017-09-08T09:56:04.720Z,61.90
2017-09-08T09:58:32.619Z,61.60
2017-09-08T10:01:00.145Z,58.50
2017-09-08T10:03:27.672Z,56.30
2017-09-08T10:05:55.184Z,52.20
2017-09-08T10:08:23.456Z,44.40
2017-09-08T10:10:55.344Z,44.30
2017-09-08T10:13:22.870Z,46.00
2017-09-08T10:15:50.405Z,47.70
2017-09-08T10:18:17.919Z,46.30
2017-09-08T10:20:47.133Z,49.80
2017-09-08T10:23:14.769Z,49.90
2017-09-08T10:25:43.179Z,54.30
2017-09-08T10:28:11.207Z,54.30
2017-09-08T10:30:39.799Z,57.10
2017-09-08T10:33:07.321Z,57.10
2017-09-08T10:35:35.634Z,56.70
2017-09-08T10:38:03.448Z,58.50
2017-09-08T10:40:30.958Z,58.70
2017-09-08T10:42:59.238Z,58.80
2017-09-08T10:45:26.746Z,58.80
2017-09-08T10:47:55.393Z,61.50
2017-09-08T10:50:22.899Z,61.40
2017-09-08T10:52:50.443Z,63.00
2017-09-08T10:55:17.944Z,64.60
2017-09-08T10:57:45.444Z,62.10
2017-09-08T11:00:13.927Z,62.20
2017-09-08T11:02:41.877Z,62.30
2017-09-08T11:05:09.384Z,62.00
2017-09-08T11:07:36.945Z,63.40
2017-09-08T11:10:04.468Z,63.70
2017-09-08T11:12:33.699Z,62.70
2017-09-08T11:15:01.221Z,62.50
2017-09-08T11:17:29.552Z,64.00
2017-09-08T11:19:58.179Z,64.00
2017-09-08T11:22:26.456Z,62.60
2017-09-08T11:24:57.117Z,62.50
2017-09-08T11:27:24.636Z,62.90
2017-09-08T11:29:53.609Z,61.80
2017-09-08T11:35:27.813Z,60.50
2017-09-08T11:37:55.316Z,60.80
2017-09-08T11:40:23.292Z,59.10
2017-09-08T11:42:51.718Z,58.10
2017-09-08T11:45:19.263Z,56.80
2017-09-08T11:47:48.494Z,57.30
2017-09-08T11:50:16.033Z,57.30
2017-09-08T11:52:44.516Z,55.60
2017-09-08T11:55:12.085Z,55.30
2017-09-08T11:57:39.840Z,56.20
2017-09-08T12:00:07.543Z,57.30
2017-09-08T12:02:35.100Z,58.30
2017-09-08T12:05:02.616Z,57.40
2017-09-08T12:07:30.909Z,61.00
2017-09-08T12:09:58.452Z,61.00
2017-09-08T12:12:26.456Z,60.90
2017-09-08T12:14:53.975Z,60.60
2017-09-08T12:17:22.312Z,61.00
2017-09-08T12:19:49.816Z,60.90
2017-09-08T12:22:17.311Z,61.10
2017-09-08T12:24:46.716Z,61.00
2017-09-08T12:27:14.233Z,60.50
2017-09-08T12:29:41.896Z,61.60
2017-09-08T12:32:10.176Z,60.10
2017-09-08T12:34:37.696Z,58.90
2017-09-08T12:37:05.244Z,57.30
2017-09-08T12:39:33.520Z,53.80
2017-09-08T12:42:04.586Z,53.70
2017-09-08T12:44:32.120Z,52.40
2017-09-08T12:46:59.755Z,51.90
2017-09-08T12:49:27.268Z,53.70
2017-09-08T12:51:55.275Z,51.50
2017-09-08T12:54:23.056Z,51.50
2017-09-08T12:56:50.568Z,52.00
2017-09-08T12:59:19.255Z,53.60
2017-09-08T13:01:47.229Z,54.80
2017-09-08T13:04:15.601Z,54.00
2017-09-08T13:06:43.343Z,53.80
2017-09-08T13:09:10.853Z,53.70
2017-09-08T13:11:41.722Z,52.70
2017-09-08T13:14:09.276Z,54.80
2017-09-08T13:16:36.787Z,55.40
2017-09-08T13:19:04.287Z,55.50
2017-09-08T13:21:32.727Z,57.90
2017-09-08T13:24:00.245Z,58.30
2017-09-08T13:26:27.951Z,57.40
2017-09-08T13:28:55.848Z,59.20
2017-09-08T13:31:23.348Z,58.80
2017-09-08T13:33:50.966Z,60.40
2017-09-08T13:36:18.536Z,58.20
2017-09-08T13:38:46.735Z,59.30
2017-09-08T13:41:14.256Z,59.30
2017-09-08T13:43:42.060Z,60.20
2017-09-08T13:46:09.579Z,60.30
2017-09-08T13:48:37.839Z,61.10
2017-09-08T13:51:05.608Z,61.20
2017-09-08T13:53:33.169Z,61.00
2017-09-08T13:56:00.675Z,62.00
2017-09-08T13:58:28.199Z,62.70
2017-09-08T14:00:55.859Z,62.80
2017-09-08T14:03:25.084Z,63.20
2017-09-08T14:05:52.636Z,63.20
2017-09-08T14:08:20.698Z,63.20
2017-09-08T14:10:48.235Z,63.70
2017-09-08T14:13:15.746Z,64.00
2017-09-08T14:15:44.824Z,65.30
2017-09-08T14:18:12.378Z,65.20
2017-09-08T14:20:40.671Z,65.70
2017-09-08T14:23:08.674Z,65.60
2017-09-08T14:25:36.196Z,65.50
2017-09-08T14:28:08.296Z,65.60
2017-09-08T14:30:35.838Z,66.20
2017-09-08T14:33:03.447Z,65.00
2017-09-08T14:35:31.344Z,65.10
2017-09-08T14:37:59.615Z,65.70
2017-09-08T14:40:27.152Z,65.70
2017-09-08T14:42:54.704Z,65.80
2017-09-08T14:45:23.776Z,66.10
2017-09-08T14:47:51.427Z,66.00
2017-09-08T14:50:18.944Z,66.00
2017-09-08T14:52:48.199Z,64.80
2017-09-08T14:55:15.727Z,64.80
2017-09-08T14:57:44.056Z,65.50
2017-09-08T15:00:12.319Z,65.50
2017-09-08T15:02:39.863Z,65.20
2017-09-08T15:07:57.894Z,64.90
2017-09-08T15:10:25.432Z,65.20
2017-09-08T15:12:53.235Z,65.70
2017-09-08T15:15:20.756Z,66.10
2017-09-08T15:17:48.371Z,66.00
2017-09-08T15:20:15.871Z,63.80
2017-09-08T15:22:44.917Z,64.50
2017-09-08T15:25:12.414Z,64.60
2017-09-08T15:27:39.955Z,65.80
2017-09-08T15:30:10.355Z,64.50
2017-09-08T15:32:41.823Z,64.50
2017-09-08T15:35:10.466Z,65.60
2017-09-08T15:37:38.026Z,65.60
2017-09-08T15:40:07.045Z,64.30
2017-09-08T15:42:34.607Z,64.00
2017-09-08T15:45:04.930Z,64.90
2017-09-08T15:47:32.483Z,64.30
2017-09-08T15:50:00.755Z,66.20
2017-09-08T15:52:29.882Z,65.40
2017-09-08T15:54:57.799Z,65.40
2017-09-08T15:57:25.619Z,65.50
2017-09-08T15:59:57.556Z,66.00
2017-09-08T16:02:25.071Z,65.90
2017-09-08T16:04:52.643Z,66.00
2017-09-08T16:07:20.169Z,66.60
2017-09-08T16:09:47.735Z,66.50
2017-09-08T16:12:15.292Z,66.50
2017-09-08T16:14:43.273Z,67.70
2017-09-08T16:17:10.787Z,66.80
2017-09-08T16:19:38.498Z,67.30
2017-09-08T16:22:06.044Z,67.50
2017-09-08T16:24:33.555Z,67.80
2017-09-08T16:27:02.801Z,68.00
2017-09-08T16:29:30.298Z,67.80
2017-09-08T16:31:57.855Z,69.00
2017-09-08T16:34:25.369Z,69.20
2017-09-08T16:36:52.882Z,69.20
2017-09-08T16:39:20.380Z,69.80
2017-09-08T16:41:48.103Z,70.30
2017-09-08T16:44:16.257Z,69.90
2017-09-08T16:46:43.776Z,69.00
2017-09-08T16:49:11.272Z,69.60
2017-09-08T16:51:38.786Z,70.80
2017-09-08T16:54:06.378Z,70.20
2017-09-08T16:56:33.932Z,70.90
2017-09-08T16:59:01.440Z,70.90
2017-09-08T17:01:29.684Z,71.60
2017-09-08T17:03:57.203Z,72.80
2017-09-08T17:06:24.890Z,72.20
2017-09-08T17:08:52.453Z,73.10
2017-09-08T17:11:20.116Z,72.90
2017-09-08T17:13:47.642Z,73.70
2017-09-08T17:16:15.916Z,73.20
2017-09-08T17:18:43.481Z,73.10
2017-09-08T17:21:11.763Z,73.90
2017-09-08T17:23:39.259Z,73.90
2017-09-08T17:26:06.986Z,76.20
2017-09-08T17:28:34.537Z,75.50
2017-09-08T17:31:05.626Z,74.80
2017-09-08T17:33:33.160Z,76.90
2017-09-08T17:36:00.667Z,79.20
2017-09-08T17:38:28.300Z,78.20
2017-09-08T17:40:55.846Z,78.70
2017-09-08T17:43:23.608Z,79.40
2017-09-08T17:45:51.795Z,80.60
2017-09-08T17:48:19.443Z,81.50
2017-09-08T17:50:46.951Z,83.00
2017-09-08T17:53:14.447Z,83.70
2017-09-08T17:55:41.960Z,84.70
2017-09-08T17:58:09.470Z,86.40
2017-09-08T18:00:37.814Z,87.90
2017-09-08T18:03:05.353Z,87.90
2017-09-08T18:05:32.875Z,87.50
2017-09-08T18:08:00.387Z,88.90
2017-09-08T18:10:27.924Z,90.10
2017-09-08T18:12:55.487Z,90.60
2017-09-08T18:15:23.007Z,90.60
2017-09-08T18:17:50.535Z,90.50
2017-09-08T18:20:18.041Z,89.50
2017-09-08T18:22:45.584Z,90.10
2017-09-08T18:25:14.256Z,89.10
2017-09-08T18:27:41.811Z,89.10
2017-09-08T18:30:09.402Z,89.80
2017-09-08T18:32:38.623Z,89.40
2017-09-08T18:35:06.137Z,89.40
2017-09-08T18:37:33.716Z,88.00
2017-09-08T18:40:01.263Z,87.60
2017-09-08T18:42:29.564Z,87.30
2017-09-08T18:44:57.399Z,87.10
2017-09-08T18:47:25.674Z,88.20
2017-09-08T18:49:53.181Z,88.10
2017-09-08T18:52:21.639Z,88.50
2017-09-08T18:54:49.158Z,88.30
2017-09-08T18:57:16.703Z,88.80
2017-09-08T18:59:45.191Z,88.40
2017-09-08T19:02:16.183Z,88.70
2017-09-08T19:04:43.689Z,88.40
2017-09-08T19:07:11.200Z,88.80
2017-09-08T19:09:38.709Z,90.10
2017-09-08T19:12:06.771Z,90.40
2017-09-08T19:14:34.304Z,91.00
2017-09-08T19:17:01.855Z,91.00
2017-09-08T19:19:29.463Z,91.10
2017-09-08T19:21:57.520Z,91.00
2017-09-08T19:24:25.138Z,90.90
2017-09-08T19:26:52.648Z,90.60
2017-09-08T19:29:20.195Z,91.20
2017-09-08T19:31:48.264Z,90.20
2017-09-08T19:34:15.865Z,90.40
2017-09-08T19:36:44.152Z,90.50
2017-09-08T19:39:11.725Z,90.40
2017-09-08T19:41:40.025Z,90.40
2017-09-08T19:44:07.581Z,90.40
2017-09-08T19:46:35.180Z,90.70
2017-09-08T19:49:03.628Z,90.80
2017-09-08T19:51:31.201Z,91.00
2017-09-08T19:53:58.718Z,91.00
2017-09-08T19:56:26.261Z,90.90
2017-09-08T19:58:53.785Z,91.00
2017-09-08T20:01:22.272Z,91.30
2017-09-08T20:03:56.957Z,91.20
2017-09-08T20:06:25.272Z,91.20
2017-09-08T20:11:26.771Z,91.10
2017-09-08T20:13:54.866Z,90.90
2017-09-08T20:16:22.856Z,91.30
2017-09-08T20:18:51.199Z,91.10
2017-09-08T20:21:18.709Z,91.10
2017-09-08T20:23:46.268Z,91.50
2017-09-08T20:26:13.794Z,91.10
2017-09-08T20:28:41.319Z,91.40
2017-09-08T20:31:08.896Z,91.50
2017-09-08T20:33:37.204Z,91.40
2017-09-08T20:36:05.478Z,91.40
2017-09-08T20:38:33.535Z,91.40
2017-09-08T20:41:01.097Z,91.80
2017-09-08T20:43:28.666Z,92.10
2017-09-08T20:45:56.663Z,92.10
2017-09-08T20:48:24.335Z,92.30
2017-09-08T20:50:51.855Z,92.60
2017-09-08T20:53:19.679Z,92.20
2017-09-08T20:55:47.203Z,92.30
2017-09-08T20:58:15.484Z,92.10
2017-09-08T21:00:43.762Z,92.10
2017-09-08T21:03:11.321Z,92.10
2017-09-08T21:05:38.883Z,92.10
2017-09-08T21:08:06.403Z,92.10
2017-09-08T21:10:34.875Z,92.10
2017-09-08T21:13:02.414Z,92.30
2017-09-08T21:15:29.970Z,92.40
2017-09-08T21:17:57.509Z,92.60
2017-09-08T21:20:29.223Z,92.70
2017-09-08T21:22:56.771Z,92.50
2017-09-08T21:25:26.031Z,92.60
2017-09-08T21:27:54.346Z,92.50
2017-09-08T21:30:21.900Z,92.70
2017-09-08T21:32:49.429Z,92.50
2017-09-08T21:35:21.768Z,92.50
2017-09-08T21:37:50.084Z,92.40
2017-09-08T21:40:17.600Z,92.30
2017-09-08T21:42:45.111Z,92.40
2017-09-08T21:45:12.632Z,92.40
2017-09-08T21:47:40.178Z,92.50
2017-09-08T21:50:07.748Z,92.60
2017-09-08T21:52:35.254Z,92.90
2017-09-08T21:55:03.176Z,92.90
2017-09-08T21:57:30.676Z,93.20
2017-09-08T21:59:58.193Z,93.20
2017-09-08T22:02:25.834Z,93.40
2017-09-08T22:04:53.387Z,93.50
2017-09-08T22:07:20.918Z,93.70
2017-09-08T22:09:48.431Z,93.70
2017-09-08T22:12:16.599Z,93.80
2017-09-08T22:14:44.185Z,93.70
2017-09-08T22:17:12.460Z,94.00
2017-09-08T22:19:40.007Z,94.00
2017-09-08T22:22:07.506Z,93.70
2017-09-08T22:24:35.955Z,93.80
2017-09-08T22:27:04.280Z,93.40
2017-09-08T22:29:31.823Z,93.40
2017-09-08T22:32:00.247Z,93.50
2017-09-08T22:34:28.370Z,93.70
2017-09-08T22:36:55.867Z,93.60
2017-09-08T22:39:23.446Z,93.70
2017-09-08T22:41:51.027Z,94.10
2017-09-08T22:44:18.543Z,94.40
2017-09-08T22:46:46.072Z,94.30
2017-09-08T22:49:14.980Z,94.20
2017-09-08T22:51:42.495Z,94.20
2017-09-08T22:54:10.035Z,94.60
2017-09-08T22:56:37.612Z,94.60
2017-09-08T22:59:05.155Z,94.50
2017-09-08T23:01:33.216Z,94.70
2017-09-08T23:04:00.773Z,94.80
2017-09-08T23:06:32.674Z,94.90
2017-09-08T23:09:00.181Z,95.30
2017-09-08T23:11:28.175Z,95.40
2017-09-08T23:13:55.683Z,95.40
2017-09-08T23:16:23.183Z,95.60
2017-09-08T23:18:50.691Z,95.80
2017-09-08T23:21:18.967Z,95.80
2017-09-08T23:23:46.981Z,95.80
2017-09-08T23:26:14.506Z,95.80
2017-09-08T23:28:42.014Z,95.90
2017-09-08T23:31:09.526Z,96.00
2017-09-08T23:33:37.804Z,96.30
2017-09-08T23:36:07.018Z,96.50
2017-09-08T23:38:35.541Z,96.40
2017-09-08T23:41:03.048Z,96.30
2017-09-08T23:43:31.011Z,96.10
2017-09-08T23:45:58.540Z,96.00
2017-09-08T23:48:26.047Z,96.00
2017-09-08T23:50:53.558Z,95.90
2017-09-08T23:53:21.071Z,95.80
2017-09-08T23:55:48.575Z,95.70
2017-09-08T23:58:16.086Z,95.80
